Terminal Aerodrome Forecast
Issued by NWS

Home | Current Version | Previous Version | Text Only | Print | Product List | Glossary Off
Versions: 1 2 3 4 5 6 7 8 9 10 11 12 13 14 15 16

000
FTUS43 KMPX 182100 AAA
TAFRWF
TAF AMD
KRWF 182104Z 1821/1918 28011G17KT P6SM VCSH SCT060 BKN100
      TEMPO 1821/1901 3SM TSRA BR BKN025CB BKN050
     FM190200 29006KT P6SM SCT100
      TEMPO 1908/1912 2SM BR
     FM191500 33006KT P6SM SCT250=

USA.gov is the U.S. government's official web portal to all federal, state and local government web resources and services.